createdAt,value
2018-04-08T00:02:04.380Z,23.58
2018-04-08T00:04:33.511Z,18.40
2018-04-08T00:07:02.671Z,18.95
2018-04-08T00:09:32.134Z,17.85
2018-04-08T00:12:01.266Z,20.88
2018-04-08T00:14:30.470Z,19.30
2018-04-08T00:16:59.938Z,20.80
2018-04-08T00:19:29.220Z,26.62
2018-04-08T00:21:58.338Z,20.30
2018-04-08T00:24:27.566Z,24.27
2018-04-08T00:26:56.700Z,20.70
2018-04-08T00:29:25.822Z,19.00
2018-04-08T00:31:55.014Z,20.15
2018-04-08T00:34:24.131Z,22.37
2018-04-08T00:36:53.348Z,19.50
2018-04-08T00:39:22.815Z,18.75
2018-04-08T00:41:51.935Z,17.42
2018-04-08T00:44:21.088Z,19.35
2018-04-08T00:46:50.223Z,18.98
2018-04-08T00:49:19.350Z,17.98
2018-04-08T00:51:48.473Z,19.20
2018-04-08T00:54:23.774Z,20.77
2018-04-08T00:56:52.898Z,23.67
2018-04-08T00:59:22.107Z,21.98
2018-04-08T01:01:51.516Z,19.42
2018-04-08T01:04:20.702Z,19.87
2018-04-08T01:06:49.819Z,23.38
2018-04-08T01:09:19.331Z,21.62
2018-04-08T01:11:48.452Z,21.10
2018-04-08T01:14:17.604Z,22.15
2018-04-08T01:16:47.027Z,21.62
2018-04-08T01:19:16.160Z,24.15
2018-04-08T01:21:45.307Z,20.40
2018-04-08T01:24:14.822Z,26.00
2018-04-08T01:26:43.954Z,20.23
2018-04-08T01:29:13.067Z,21.55
2018-04-08T01:31:42.519Z,26.25
2018-04-08T01:34:11.641Z,25.90
2018-04-08T01:36:40.809Z,26.80
2018-04-08T01:39:10.211Z,20.75
2018-04-08T01:41:39.338Z,21.83
2018-04-08T01:44:08.476Z,25.92
2018-04-08T01:46:38.066Z,20.75
2018-04-08T01:49:07.191Z,24.73
2018-04-08T01:51:36.306Z,24.20
2018-04-08T01:54:05.537Z,23.08
2018-04-08T01:56:34.653Z,25.52
2018-04-08T01:59:03.791Z,23.95
2018-04-08T02:01:32.919Z,27.40
2018-04-08T02:04:02.031Z,23.45
2018-04-08T02:06:31.160Z,27.05
2018-04-08T02:09:00.593Z,22.40
2018-04-08T02:11:29.722Z,26.00
2018-04-08T02:13:58.838Z,28.08
2018-04-08T02:16:27.964Z,28.27
2018-04-08T02:18:57.085Z,24.95
2018-04-08T02:21:26.296Z,26.23
2018-04-08T02:23:55.775Z,32.58
2018-04-08T02:26:24.891Z,29.50
2018-04-08T02:28:54.006Z,26.08
2018-04-08T02:31:23.458Z,28.92
2018-04-08T02:33:52.576Z,30.58
2018-04-08T02:36:21.804Z,33.75
2018-04-08T02:38:50.936Z,31.35
2018-04-08T02:41:20.060Z,31.25
2018-04-08T02:43:49.191Z,30.88
2018-04-08T02:46:18.643Z,25.92
2018-04-08T02:48:47.765Z,30.17
2018-04-08T02:51:16.895Z,30.98
2018-04-08T02:53:46.032Z,29.90
2018-04-08T02:56:15.157Z,29.95
2018-04-08T02:58:44.274Z,28.77
2018-04-08T03:01:13.744Z,33.08
2018-04-08T03:03:42.860Z,31.80
2018-04-08T03:06:12.001Z,35.22
2018-04-08T03:08:41.137Z,35.33
2018-04-08T03:11:10.262Z,31.50
2018-04-08T03:13:39.389Z,33.97
2018-04-08T03:16:08.818Z,33.67
2018-04-08T03:18:37.959Z,43.08
2018-04-08T03:21:07.079Z,45.00
2018-04-08T03:23:36.210Z,36.95
2018-04-08T03:26:05.327Z,39.65
2018-04-08T03:28:34.443Z,44.05
2018-04-08T03:31:03.579Z,34.60
2018-04-08T03:33:32.707Z,39.17
2018-04-08T03:36:01.910Z,45.58
2018-04-08T03:38:31.035Z,38.38
2018-04-08T03:41:00.181Z,37.85
2018-04-08T03:43:29.318Z,38.55
2018-04-08T03:45:58.775Z,41.70
2018-04-08T03:48:27.894Z,38.58
2018-04-08T03:50:57.025Z,36.67
2018-04-08T03:53:26.293Z,51.28
2018-04-08T03:55:55.412Z,40.03
2018-04-08T03:58:24.535Z,42.15
2018-04-08T04:00:53.922Z,37.15
2018-04-08T04:03:23.144Z,45.15
2018-04-08T04:05:52.258Z,41.78
2018-04-08T04:08:21.395Z,43.97
2018-04-08T04:10:50.509Z,42.08
2018-04-08T04:13:19.632Z,40.05
2018-04-08T04:15:49.043Z,47.42
2018-04-08T04:18:24.140Z,39.97
2018-04-08T04:20:59.331Z,39.53
2018-04-08T04:23:34.327Z,41.78
2018-04-08T04:26:19.151Z,42.83
2018-04-08T04:28:48.919Z,44.67
2018-04-08T04:31:18.035Z,42.97
2018-04-08T04:33:47.526Z,45.15
2018-04-08T04:36:16.635Z,45.20
2018-04-08T04:38:45.771Z,51.30
2018-04-08T04:41:14.905Z,45.05
2018-04-08T04:43:44.028Z,44.78
2018-04-08T04:46:13.143Z,49.25
2018-04-08T04:48:42.595Z,51.20
2018-04-08T04:51:11.766Z,53.38
2018-04-08T04:53:40.892Z,46.70
2018-04-08T04:56:10.430Z,52.45
2018-04-08T04:58:39.553Z,52.35
2018-04-08T05:01:08.670Z,50.00
2018-04-08T05:03:37.827Z,54.95
2018-04-08T05:06:06.938Z,61.75
2018-04-08T05:08:36.067Z,52.70
2018-04-08T05:11:05.443Z,59.40
2018-04-08T05:13:34.573Z,46.47
2018-04-08T05:16:03.774Z,53.00
2018-04-08T05:18:32.916Z,51.35
2018-04-08T05:21:02.035Z,50.60
2018-04-08T05:23:31.159Z,47.17
2018-04-08T05:26:00.671Z,46.05
2018-04-08T05:28:29.810Z,60.83
2018-04-08T05:30:58.938Z,46.67
2018-04-08T05:33:28.067Z,49.50
2018-04-08T05:35:57.191Z,49.42
2018-04-08T05:38:26.315Z,46.35
2018-04-08T05:40:55.749Z,43.47
2018-04-08T05:43:24.982Z,46.95
2018-04-08T05:45:54.100Z,45.58
2018-04-08T05:48:23.342Z,45.30
2018-04-08T05:50:52.459Z,43.63
2018-04-08T05:53:21.621Z,43.60
2018-04-08T05:55:51.130Z,46.25
2018-04-08T05:58:20.265Z,47.62
2018-04-08T06:00:49.387Z,42.62
2018-04-08T06:03:18.746Z,41.83
2018-04-08T06:05:47.874Z,43.80
2018-04-08T06:08:17.003Z,46.30
2018-04-08T06:10:46.148Z,44.38
2018-04-08T06:13:15.264Z,40.35
2018-04-08T06:15:44.387Z,37.60
2018-04-08T06:18:13.555Z,39.33
2018-04-08T06:20:42.674Z,46.28
2018-04-08T06:23:11.807Z,44.15
2018-04-08T06:25:40.938Z,38.53
2018-04-08T06:28:10.061Z,34.78
2018-04-08T06:30:39.190Z,41.85
2018-04-08T06:33:08.356Z,40.72
2018-04-08T06:35:37.479Z,33.17
2018-04-08T06:38:06.598Z,34.83
2018-04-08T06:40:36.071Z,38.05
2018-04-08T06:43:05.199Z,33.42
2018-04-08T06:45:34.350Z,37.78
2018-04-08T06:48:03.787Z,32.22
2018-04-08T06:50:32.911Z,39.72
2018-04-08T06:53:02.032Z,34.35
2018-04-08T06:55:31.563Z,38.35
2018-04-08T06:58:00.695Z,35.05
2018-04-08T07:00:29.816Z,31.30
2018-04-08T07:02:58.976Z,34.13
2018-04-08T07:05:28.107Z,30.00
2018-04-08T07:07:57.239Z,29.95
2018-04-08T07:10:26.387Z,27.02
2018-04-08T07:12:55.532Z,26.67
2018-04-08T07:15:24.660Z,30.92
2018-04-08T07:17:53.793Z,29.02
2018-04-08T07:20:22.931Z,28.17
2018-04-08T07:22:52.058Z,26.65
2018-04-08T07:25:21.200Z,27.98
2018-04-08T07:27:51.006Z,26.27
2018-04-08T07:30:20.146Z,28.03
2018-04-08T07:32:49.282Z,26.70
2018-04-08T07:35:18.427Z,31.48
2018-04-08T07:37:47.551Z,25.30
2018-04-08T07:40:16.710Z,26.47
2018-04-08T07:42:45.839Z,28.97
2018-04-08T07:45:14.964Z,29.80
2018-04-08T07:47:44.108Z,25.90
2018-04-08T07:50:13.287Z,25.23
2018-04-08T07:52:42.411Z,25.93
2018-04-08T07:55:11.564Z,26.03
2018-04-08T07:57:40.817Z,24.90
2018-04-08T08:00:09.944Z,22.33
2018-04-08T08:02:39.380Z,23.83
2018-04-08T08:05:08.507Z,23.03
2018-04-08T08:07:37.639Z,22.40
2018-04-08T08:10:07.942Z,21.40
2018-04-08T08:12:37.076Z,22.73
2018-04-08T08:15:06.269Z,23.60
2018-04-08T08:17:35.802Z,25.00
2018-04-08T08:20:04.924Z,21.80
2018-04-08T08:22:34.044Z,27.27
2018-04-08T08:25:03.183Z,24.40
2018-04-08T08:27:32.309Z,22.67
2018-04-08T08:30:01.436Z,22.57
2018-04-08T08:32:30.884Z,20.57
2018-04-08T08:35:00.011Z,20.40
2018-04-08T08:37:29.133Z,23.50
2018-04-08T08:39:58.670Z,20.20
2018-04-08T08:42:27.909Z,21.23
2018-04-08T08:44:57.027Z,16.10
2018-04-08T08:47:26.300Z,14.97
2018-04-08T08:49:55.432Z,16.53
2018-04-08T08:52:24.602Z,16.00
2018-04-08T08:54:53.765Z,15.43
2018-04-08T08:57:22.930Z,14.50
2018-04-08T08:59:52.054Z,16.23
2018-04-08T09:02:21.281Z,13.27
2018-04-08T09:04:50.411Z,12.50
2018-04-08T09:07:19.539Z,13.83
2018-04-08T09:09:48.768Z,13.93
2018-04-08T09:12:17.902Z,16.00
2018-04-08T09:14:47.049Z,16.00
2018-04-08T09:17:16.176Z,15.00
2018-04-08T09:19:47.118Z,16.90
2018-04-08T09:22:21.955Z,17.90
2018-04-08T09:24:54.747Z,16.87
2018-04-08T09:27:23.887Z,15.87
2018-04-08T09:29:53.028Z,15.57
2018-04-08T09:32:22.146Z,19.00
2018-04-08T09:34:51.286Z,20.83
2018-04-08T09:37:20.420Z,15.77
2018-04-08T09:39:49.571Z,15.60
2018-04-08T09:42:18.784Z,14.63
2018-04-08T09:44:47.914Z,15.13
2018-04-08T09:47:17.075Z,17.83
2018-04-08T09:49:46.237Z,14.50
2018-04-08T09:52:15.355Z,18.53
2018-04-08T09:54:44.501Z,13.10
2018-04-08T09:57:13.653Z,13.27
2018-04-08T09:59:42.803Z,18.53
2018-04-08T10:02:30.707Z,15.60
2018-04-08T10:04:59.871Z,14.83
2018-04-08T10:07:28.998Z,14.60
2018-04-08T10:09:58.122Z,15.83
2018-04-08T10:12:27.252Z,17.60
2018-04-08T10:14:56.381Z,16.17
2018-04-08T10:17:25.535Z,16.60
2018-04-08T10:19:54.719Z,17.73
2018-04-08T10:22:23.835Z,17.03
2018-04-08T10:24:53.386Z,17.33
2018-04-08T10:27:22.496Z,17.90
2018-04-08T10:29:51.631Z,21.27
2018-04-08T10:32:21.134Z,16.67
2018-04-08T10:34:56.368Z,20.30
2018-04-08T10:37:25.623Z,15.23
2018-04-08T10:39:54.750Z,15.37
2018-04-08T10:42:23.869Z,17.70
2018-04-08T10:44:53.067Z,19.07
2018-04-08T10:47:22.204Z,16.90
2018-04-08T10:49:51.380Z,17.20
2018-04-08T10:52:20.527Z,16.77
2018-04-08T10:54:49.670Z,15.53
2018-04-08T10:57:18.794Z,16.20
2018-04-08T10:59:47.940Z,15.90
2018-04-08T11:02:17.346Z,17.30
2018-04-08T11:04:46.504Z,18.00
2018-04-08T11:07:15.593Z,16.13
2018-04-08T11:09:44.711Z,16.60
2018-04-08T11:12:13.876Z,17.50
2018-04-08T11:14:43.011Z,17.20
2018-04-08T11:17:12.144Z,17.03
2018-04-08T11:19:43.543Z,18.10
2018-04-08T11:22:12.673Z,17.13
2018-04-08T11:24:41.804Z,21.23
2018-04-08T11:27:11.180Z,17.27
2018-04-08T11:29:40.303Z,17.97
2018-04-08T11:32:09.427Z,18.00
2018-04-08T11:34:38.965Z,18.73
2018-04-08T11:37:08.099Z,20.80
2018-04-08T11:39:37.231Z,19.43
2018-04-08T11:42:06.647Z,18.43
2018-04-08T11:44:35.770Z,19.30
2018-04-08T11:47:04.890Z,18.53
2018-04-08T11:49:34.300Z,19.20
2018-04-08T11:52:03.416Z,19.20
2018-04-08T11:54:32.548Z,20.57
2018-04-08T11:57:02.039Z,20.53
2018-04-08T11:59:31.179Z,20.83
2018-04-08T12:02:00.399Z,18.60
2018-04-08T12:04:29.828Z,18.03
2018-04-08T12:06:58.983Z,18.13
2018-04-08T12:09:28.095Z,20.60
2018-04-08T12:11:57.257Z,18.90
2018-04-08T12:14:26.378Z,17.90
2018-04-08T12:16:55.507Z,22.90
2018-04-08T12:19:24.738Z,24.20
2018-04-08T12:21:53.876Z,16.10
2018-04-08T12:24:23.002Z,16.80
2018-04-08T12:26:53.117Z,16.97
2018-04-08T12:29:22.349Z,17.37
2018-04-08T12:31:51.465Z,18.27
2018-04-08T12:34:20.930Z,16.57
2018-04-08T12:36:50.145Z,16.80
2018-04-08T12:39:19.272Z,16.03
2018-04-08T12:41:48.428Z,21.73
2018-04-08T12:44:17.578Z,19.73
2018-04-08T12:46:46.713Z,26.87
2018-04-08T12:49:16.210Z,20.80
2018-04-08T12:51:45.457Z,17.20
2018-04-08T12:54:14.576Z,16.97
2018-04-08T12:56:43.828Z,12.40
2018-04-08T12:59:12.947Z,16.97
2018-04-08T13:01:42.059Z,19.90
2018-04-08T13:04:12.205Z,13.13
2018-04-08T13:06:41.332Z,14.57
2018-04-08T13:09:10.451Z,12.87
2018-04-08T13:11:39.901Z,12.17
2018-04-08T13:14:09.049Z,12.20
2018-04-08T13:16:38.156Z,16.67
2018-04-08T13:19:07.284Z,15.33
2018-04-08T13:21:36.455Z,14.23
2018-04-08T13:24:05.575Z,17.73
2018-04-08T13:26:34.731Z,16.67
2018-04-08T13:29:04.568Z,16.33
2018-04-08T13:31:33.692Z,18.53
2018-04-08T13:34:02.836Z,12.53
2018-04-08T13:36:31.971Z,18.80
2018-04-08T13:39:01.087Z,22.23
2018-04-08T13:41:30.318Z,18.57
2018-04-08T13:43:59.442Z,14.67
2018-04-08T13:46:28.559Z,14.47
2018-04-08T13:48:57.707Z,13.60
2018-04-08T13:51:26.828Z,13.77
2018-04-08T13:53:55.965Z,17.13
2018-04-08T13:56:25.095Z,15.63
2018-04-08T13:58:54.235Z,22.77
2018-04-08T14:01:23.373Z,27.60
2018-04-08T14:03:52.512Z,36.10
2018-04-08T14:06:21.639Z,31.50
2018-04-08T14:08:50.791Z,32.50
2018-04-08T14:11:20.294Z,32.07
2018-04-08T14:13:49.411Z,31.40
2018-04-08T14:16:18.531Z,31.30
2018-04-08T14:18:48.007Z,37.77
2018-04-08T14:21:17.171Z,33.30
2018-04-08T14:23:46.306Z,32.80
2018-04-08T14:26:15.831Z,34.60
2018-04-08T14:28:44.963Z,33.83
2018-04-08T14:31:14.136Z,35.33
2018-04-08T14:33:43.344Z,32.70
2018-04-08T14:36:12.471Z,32.07
2018-04-08T14:38:41.611Z,35.40
2018-04-08T14:41:10.761Z,35.50
2018-04-08T14:43:39.886Z,32.10
2018-04-08T14:46:09.003Z,31.90
2018-04-08T14:48:38.169Z,32.90
2018-04-08T14:51:07.284Z,34.50
2018-04-08T14:53:36.424Z,33.63
2018-04-08T14:56:05.913Z,31.93
2018-04-08T14:58:35.034Z,33.07
2018-04-08T15:01:04.174Z,31.53
2018-04-08T15:03:33.683Z,31.07
2018-04-08T15:06:02.812Z,34.93
2018-04-08T15:08:31.934Z,31.40
2018-04-08T15:11:01.380Z,31.07
2018-04-08T15:13:30.504Z,34.10
2018-04-08T15:15:59.630Z,34.80
2018-04-08T15:18:29.033Z,35.47
2018-04-08T15:20:58.164Z,34.90
2018-04-08T15:23:27.296Z,33.67
2018-04-08T15:25:56.435Z,35.50
2018-04-08T15:28:25.566Z,30.40
2018-04-08T15:30:54.686Z,33.50
2018-04-08T15:33:23.901Z,32.00
2018-04-08T15:35:53.017Z,33.30
2018-04-08T15:38:22.631Z,30.83
2018-04-08T15:40:51.974Z,32.57
2018-04-08T15:43:21.094Z,30.53
2018-04-08T15:45:50.235Z,36.00
2018-04-08T15:48:19.470Z,29.97
2018-04-08T15:50:48.584Z,30.70
2018-04-08T15:53:17.707Z,30.50
2018-04-08T15:55:46.847Z,29.73
2018-04-08T15:58:15.987Z,30.63
2018-04-08T16:00:45.116Z,31.30
2018-04-08T16:03:14.624Z,27.67
2018-04-08T16:05:43.851Z,33.07
2018-04-08T16:08:12.976Z,31.20
2018-04-08T16:10:42.431Z,28.03
2018-04-08T16:13:11.649Z,30.10
2018-04-08T16:15:40.827Z,29.93
2018-04-08T16:18:09.971Z,30.93
2018-04-08T16:20:39.109Z,29.63
2018-04-08T16:23:08.235Z,29.87
2018-04-08T16:25:37.379Z,24.40
2018-04-08T16:28:06.527Z,32.07
2018-04-08T16:30:35.644Z,24.80
2018-04-08T16:33:05.060Z,26.13
2018-04-08T16:35:34.188Z,25.93
2018-04-08T16:38:03.308Z,29.00
2018-04-08T16:40:32.448Z,25.20
2018-04-08T16:43:01.601Z,27.67
2018-04-08T16:45:30.738Z,27.73
2018-04-08T16:47:59.893Z,30.40
2018-04-08T16:50:29.015Z,30.30
2018-04-08T16:52:58.283Z,33.60
2018-04-08T16:55:27.436Z,25.73
2018-04-08T16:57:57.455Z,25.87
2018-04-08T17:00:26.582Z,32.17
2018-04-08T17:02:55.978Z,33.37
2018-04-08T17:05:25.115Z,27.57
2018-04-08T17:07:54.278Z,31.60
2018-04-08T17:10:23.403Z,28.03
2018-04-08T17:12:52.519Z,31.30
2018-04-08T17:15:21.695Z,28.30
2018-04-08T17:17:51.155Z,30.30
2018-04-08T17:20:20.304Z,32.50
2018-04-08T17:22:49.429Z,30.70
2018-04-08T17:25:18.857Z,36.00
2018-04-08T17:27:48.011Z,30.23
2018-04-08T17:30:17.152Z,34.13
2018-04-08T17:32:46.551Z,33.77
2018-04-08T17:35:15.700Z,33.80
2018-04-08T17:37:44.839Z,30.30
2018-04-08T17:40:13.984Z,34.20
2018-04-08T17:42:43.115Z,37.40
2018-04-08T17:45:12.285Z,33.97
2018-04-08T17:47:41.450Z,35.90
2018-04-08T17:50:10.586Z,36.13
2018-04-08T17:52:39.729Z,34.53
2018-04-08T17:55:08.880Z,36.40
2018-04-08T17:57:38.007Z,38.53
2018-04-08T18:00:07.237Z,34.10
2018-04-08T18:02:36.363Z,35.93
2018-04-08T18:05:05.498Z,37.03
2018-04-08T18:07:34.616Z,29.27
2018-04-08T18:10:03.764Z,31.23
2018-04-08T18:12:32.886Z,32.03
2018-04-08T18:15:02.054Z,35.90
2018-04-08T18:17:31.460Z,29.33
2018-04-08T18:20:00.613Z,30.47
2018-04-08T18:22:29.747Z,29.77
2018-04-08T18:24:58.905Z,42.13
2018-04-08T18:27:28.038Z,27.93
2018-04-08T18:29:57.162Z,29.17
2018-04-08T18:32:26.403Z,29.77
2018-04-08T18:34:55.518Z,34.67
2018-04-08T18:37:24.651Z,38.77
2018-04-08T18:39:53.802Z,30.40
2018-04-08T18:42:22.925Z,34.27
2018-04-08T18:44:52.068Z,30.30
2018-04-08T18:47:21.271Z,30.93
2018-04-08T18:49:50.493Z,35.17
2018-04-08T18:52:19.630Z,35.50
2018-04-08T18:54:48.780Z,34.20
2018-04-08T18:57:17.941Z,33.83
2018-04-08T18:59:47.072Z,35.93
2018-04-08T19:02:16.284Z,30.27
2018-04-08T19:04:45.429Z,36.58
2018-04-08T19:07:14.644Z,38.05
2018-04-08T19:09:43.801Z,39.03
2018-04-08T19:12:12.935Z,38.53
2018-04-08T19:14:47.802Z,37.50
2018-04-08T19:17:22.672Z,40.63
2018-04-08T19:19:52.527Z,43.63
2018-04-08T19:22:21.711Z,38.60
2018-04-08T19:24:50.877Z,43.43
2018-04-08T19:27:25.724Z,41.08
2018-04-08T19:29:54.859Z,44.50
2018-04-08T19:32:24.006Z,41.03
2018-04-08T19:34:53.237Z,44.33
2018-04-08T19:37:28.866Z,38.47
2018-04-08T19:39:58.355Z,42.35
2018-04-08T19:42:27.483Z,49.50
2018-04-08T19:44:56.677Z,50.78
2018-04-08T19:47:25.862Z,47.90
2018-04-08T19:49:55.048Z,41.83
2018-04-08T19:52:24.237Z,43.08
2018-04-08T19:54:53.460Z,46.33
2018-04-08T19:57:22.636Z,41.80
2018-04-08T19:59:51.780Z,45.88
2018-04-08T20:02:21.034Z,47.75
2018-04-08T20:04:50.165Z,46.30
2018-04-08T20:07:19.312Z,48.17
2018-04-08T20:09:48.485Z,40.00
2018-04-08T20:12:17.628Z,41.63
2018-04-08T20:14:46.784Z,41.40
2018-04-08T20:17:15.957Z,42.92
2018-04-08T20:19:45.130Z,39.03
2018-04-08T20:22:14.246Z,39.17
2018-04-08T20:24:43.643Z,42.22
2018-04-08T20:27:12.775Z,39.10
2018-04-08T20:29:41.915Z,41.30
2018-04-08T20:32:11.423Z,44.60
2018-04-08T20:34:40.607Z,38.35
2018-04-08T20:37:09.848Z,44.60
2018-04-08T20:39:39.296Z,41.72
2018-04-08T20:42:08.517Z,43.70
2018-04-08T20:44:37.709Z,42.30
2018-04-08T20:47:07.169Z,44.75
2018-04-08T20:49:37.587Z,47.50
2018-04-08T20:52:06.940Z,41.37
2018-04-08T20:54:36.069Z,41.37
2018-04-08T20:57:06.075Z,45.70
2018-04-08T20:59:35.222Z,46.65
2018-04-08T21:02:04.346Z,39.80
2018-04-08T21:04:33.463Z,41.30
2018-04-08T21:07:02.612Z,43.38
2018-04-08T21:09:31.838Z,41.15
2018-04-08T21:12:00.967Z,37.78
2018-04-08T21:14:30.510Z,41.83
2018-04-08T21:16:59.640Z,40.00
2018-04-08T21:19:28.779Z,43.42
2018-04-08T21:21:58.206Z,44.90
2018-04-08T21:24:27.383Z,46.90
2018-04-08T21:26:56.459Z,40.33
2018-04-08T21:29:25.728Z,42.53
2018-04-08T21:31:54.864Z,50.08
2018-04-08T21:34:23.999Z,47.38
2018-04-08T21:36:53.554Z,45.58
2018-04-08T21:39:22.686Z,48.47
2018-04-08T21:41:51.812Z,43.20
2018-04-08T21:44:21.282Z,43.03
2018-04-08T21:46:50.431Z,49.72
2018-04-08T21:49:19.527Z,45.90
2018-04-08T21:51:48.671Z,41.37
2018-04-08T21:54:17.791Z,46.17
2018-04-08T21:56:46.919Z,44.50
2018-04-08T21:59:16.064Z,39.20
2018-04-08T22:01:45.188Z,45.38
2018-04-08T22:04:14.330Z,42.75
2018-04-08T22:06:43.479Z,42.22
2018-04-08T22:09:12.595Z,46.10
2018-04-08T22:11:41.724Z,46.40
2018-04-08T22:14:10.868Z,41.03
2018-04-08T22:16:39.987Z,41.45
2018-04-08T22:19:09.113Z,41.85
2018-04-08T22:21:38.277Z,38.97
2018-04-08T22:24:07.523Z,36.78
2018-04-08T22:26:36.656Z,39.42
2018-04-08T22:29:05.790Z,45.45
2018-04-08T22:31:34.980Z,50.00
2018-04-08T22:34:04.119Z,46.78
2018-04-08T22:36:33.250Z,48.87
2018-04-08T22:39:02.385Z,40.33
2018-04-08T22:41:31.526Z,45.70
2018-04-08T22:44:00.659Z,50.90
2018-04-08T22:46:29.787Z,45.60
2018-04-08T22:49:04.679Z,42.60
2018-04-08T22:51:34.003Z,52.97
2018-04-08T22:54:03.123Z,52.90
2018-04-08T22:56:32.615Z,49.17
2018-04-08T22:59:01.748Z,49.20
2018-04-08T23:01:30.868Z,47.00
2018-04-08T23:04:00.010Z,47.83
2018-04-08T23:06:29.123Z,50.35
2018-04-08T23:08:58.250Z,51.53
2018-04-08T23:11:27.733Z,46.90
2018-04-08T23:13:56.855Z,52.33
2018-04-08T23:16:25.972Z,56.20
2018-04-08T23:18:55.370Z,46.75
2018-04-08T23:21:24.496Z,49.92
2018-04-08T23:23:53.720Z,50.35
2018-04-08T23:26:23.232Z,50.53
2018-04-08T23:28:52.352Z,53.15
2018-04-08T23:31:21.515Z,49.33
2018-04-08T23:33:50.661Z,51.95
2018-04-08T23:36:19.801Z,47.95
2018-04-08T23:38:48.918Z,47.75
2018-04-08T23:41:18.059Z,53.50
2018-04-08T23:43:47.181Z,57.70
2018-04-08T23:46:16.395Z,51.83
2018-04-08T23:48:45.865Z,51.15
2018-04-08T23:51:14.992Z,46.17
2018-04-08T23:53:44.122Z,53.22
2018-04-08T23:56:13.507Z,54.65
2018-04-08T23:58:42.650Z,52.62
